createdAt,value
2018-12-16T00:00:57.383Z,17.40
2018-12-16T00:03:23.760Z,16.62
2018-12-16T00:05:50.092Z,17.45
2018-12-16T00:08:16.452Z,16.32
2018-12-16T00:10:43.046Z,16.65
2018-12-16T00:13:09.450Z,16.50
2018-12-16T00:15:35.811Z,16.70
2018-12-16T00:18:02.254Z,15.70
2018-12-16T00:20:28.624Z,15.68
2018-12-16T00:22:55.034Z,16.07
2018-12-16T00:25:21.545Z,15.10
2018-12-16T00:27:47.886Z,15.83
2018-12-16T00:30:14.262Z,16.00
2018-12-16T00:32:40.749Z,16.17
2018-12-16T00:35:07.269Z,15.78
2018-12-16T00:37:33.630Z,16.52
2018-12-16T00:39:59.967Z,16.27
2018-12-16T00:42:26.288Z,15.60
2018-12-16T00:44:52.662Z,16.23
2018-12-16T00:47:19.024Z,15.43
2018-12-16T00:49:45.348Z,16.80
2018-12-16T00:52:11.713Z,15.70
2018-12-16T00:54:38.001Z,17.77
2018-12-16T00:57:04.352Z,21.90
2018-12-16T00:59:30.684Z,26.80
2018-12-16T01:01:57.046Z,24.52
2018-12-16T01:04:23.368Z,21.07
2018-12-16T01:06:49.682Z,20.65
2018-12-16T01:09:16.070Z,20.37
2018-12-16T01:11:42.411Z,18.82
2018-12-16T01:14:08.742Z,17.95
2018-12-16T01:16:35.185Z,16.82
2018-12-16T01:19:01.705Z,16.55
2018-12-16T01:21:28.072Z,16.57
2018-12-16T01:23:55.400Z,17.12
2018-12-16T01:26:21.783Z,14.87
2018-12-16T01:28:48.151Z,15.40
2018-12-16T01:31:14.477Z,16.60
2018-12-16T01:33:40.876Z,16.95
2018-12-16T01:36:07.228Z,14.83
2018-12-16T01:38:33.596Z,15.70
2018-12-16T01:40:59.938Z,16.95
2018-12-16T01:43:26.252Z,15.75
2018-12-16T01:45:52.588Z,15.00
2018-12-16T01:48:18.931Z,16.80
2018-12-16T01:50:45.248Z,15.48
2018-12-16T01:53:11.610Z,16.65
2018-12-16T01:55:37.976Z,14.83
2018-12-16T01:58:04.309Z,16.50
2018-12-16T02:00:30.752Z,14.73
2018-12-16T02:02:57.064Z,16.77
2018-12-16T02:05:23.472Z,15.70
2018-12-16T02:07:49.812Z,15.13
2018-12-16T02:10:16.124Z,14.83
2018-12-16T02:12:42.443Z,14.53
2018-12-16T02:15:09.044Z,15.00
2018-12-16T02:17:35.392Z,15.28
2018-12-16T02:20:03.738Z,17.10
2018-12-16T02:22:30.120Z,14.18
2018-12-16T02:24:56.468Z,16.10
2018-12-16T02:27:22.812Z,16.23
2018-12-16T02:29:49.219Z,14.47
2018-12-16T02:32:15.589Z,15.72
2018-12-16T02:34:41.947Z,14.80
2018-12-16T02:37:08.282Z,16.12
2018-12-16T02:39:34.680Z,15.00
2018-12-16T02:42:01.102Z,15.95
2018-12-16T02:44:27.476Z,16.40
2018-12-16T02:46:53.843Z,16.30
2018-12-16T02:49:20.180Z,15.60
2018-12-16T02:51:46.589Z,16.07
2018-12-16T02:54:12.986Z,14.50
2018-12-16T02:56:39.295Z,14.25
2018-12-16T02:59:05.672Z,16.48
2018-12-16T03:01:32.035Z,14.05
2018-12-16T03:03:58.403Z,15.95
2018-12-16T03:06:24.810Z,14.13
2018-12-16T03:08:51.103Z,13.65
2018-12-16T03:11:17.447Z,14.80
2018-12-16T03:13:43.756Z,14.30
2018-12-16T03:16:10.169Z,14.07
2018-12-16T03:18:36.491Z,13.15
2018-12-16T03:21:02.974Z,15.10
2018-12-16T03:23:29.307Z,15.30
2018-12-16T03:25:55.685Z,15.68
2018-12-16T03:28:22.039Z,15.10
2018-12-16T03:30:48.381Z,14.78
2018-12-16T03:33:14.727Z,15.05
2018-12-16T03:35:41.089Z,15.15
2018-12-16T03:38:07.443Z,15.50
2018-12-16T03:40:33.778Z,15.70
2018-12-16T03:43:00.111Z,13.55
2018-12-16T03:45:26.492Z,13.35
2018-12-16T03:47:52.889Z,13.80
2018-12-16T03:50:19.235Z,13.50
2018-12-16T03:52:45.655Z,12.85
2018-12-16T03:55:12.007Z,14.00
2018-12-16T03:57:38.381Z,13.18
2018-12-16T04:00:05.860Z,13.15
2018-12-16T04:02:32.162Z,14.83
2018-12-16T04:04:58.485Z,13.75
2018-12-16T04:07:24.918Z,14.50
2018-12-16T04:09:51.313Z,12.70
2018-12-16T04:12:17.715Z,12.88
2018-12-16T04:14:44.030Z,14.00
2018-12-16T04:17:10.404Z,13.13
2018-12-16T04:19:36.742Z,15.95
2018-12-16T04:22:03.131Z,14.40
2018-12-16T04:24:29.473Z,15.05
2018-12-16T04:26:55.828Z,15.28
2018-12-16T04:29:22.198Z,15.48
2018-12-16T04:31:48.511Z,16.05
2018-12-16T04:34:14.866Z,15.95
2018-12-16T04:36:41.140Z,15.28
2018-12-16T04:39:07.487Z,13.72
2018-12-16T04:41:33.867Z,14.65
2018-12-16T04:44:00.211Z,16.73
2018-12-16T04:46:26.595Z,16.93
2018-12-16T04:48:52.920Z,15.60
2018-12-16T04:51:19.346Z,16.65
2018-12-16T04:53:45.775Z,15.85
2018-12-16T04:56:12.108Z,15.23
2018-12-16T04:58:38.547Z,14.78
2018-12-16T05:01:04.931Z,16.30
2018-12-16T05:03:31.266Z,14.98
2018-12-16T05:05:57.716Z,16.20
2018-12-16T05:08:24.063Z,16.25
2018-12-16T05:10:50.398Z,14.68
2018-12-16T05:13:16.754Z,14.87
2018-12-16T05:15:43.064Z,15.60
2018-12-16T05:18:09.399Z,16.45
2018-12-16T05:20:35.735Z,15.03
2018-12-16T05:23:02.090Z,15.35
2018-12-16T05:25:28.390Z,14.68
2018-12-16T05:27:55.077Z,16.85
2018-12-16T05:30:21.459Z,15.15
2018-12-16T05:32:47.776Z,15.80
2018-12-16T05:35:14.122Z,14.65
2018-12-16T05:37:40.556Z,15.45
2018-12-16T05:40:06.995Z,16.55
2018-12-16T05:42:33.310Z,15.50
2018-12-16T05:44:59.653Z,17.00
2018-12-16T05:47:26.032Z,14.15
2018-12-16T05:49:52.815Z,14.68
2018-12-16T05:52:19.201Z,15.15
2018-12-16T05:54:45.520Z,15.30
2018-12-16T05:57:11.853Z,15.68
2018-12-16T05:59:38.171Z,14.45
2018-12-16T06:02:04.528Z,14.53
2018-12-16T06:04:31.000Z,15.75
2018-12-16T06:06:57.313Z,15.23
2018-12-16T06:09:23.648Z,15.00
2018-12-16T06:11:49.991Z,16.20
2018-12-16T06:14:16.332Z,15.43
2018-12-16T06:16:42.719Z,14.55
2018-12-16T06:19:09.107Z,16.02
2018-12-16T06:21:35.460Z,16.30
2018-12-16T06:24:01.891Z,15.20
2018-12-16T06:26:28.306Z,16.75
2018-12-16T06:28:55.704Z,16.90
2018-12-16T06:31:22.066Z,15.70
2018-12-16T06:33:48.408Z,16.62
2018-12-16T06:36:14.806Z,16.05
2018-12-16T06:38:41.167Z,17.80
2018-12-16T06:41:07.528Z,14.90
2018-12-16T06:43:33.836Z,16.20
2018-12-16T06:46:00.213Z,17.32
2018-12-16T06:48:26.637Z,15.98
2018-12-16T06:50:53.005Z,17.15
2018-12-16T06:53:19.394Z,17.05
2018-12-16T06:55:45.774Z,17.32
2018-12-16T06:58:12.162Z,16.77
2018-12-16T07:00:38.596Z,19.02
2018-12-16T07:03:04.911Z,16.85
2018-12-16T07:05:31.349Z,16.35
2018-12-16T07:07:57.722Z,16.48
2018-12-16T07:10:24.135Z,16.48
2018-12-16T07:12:50.547Z,16.45
2018-12-16T07:15:16.866Z,18.15
2018-12-16T07:17:43.202Z,18.95
2018-12-16T07:20:09.680Z,16.73
2018-12-16T07:22:36.061Z,18.20
2018-12-16T07:25:03.458Z,17.95
2018-12-16T07:27:29.875Z,18.80
2018-12-16T07:29:56.207Z,16.97
2018-12-16T07:32:22.671Z,19.07
2018-12-16T07:34:49.006Z,19.20
2018-12-16T07:37:19.077Z,19.98
2018-12-16T07:39:43.939Z,17.60
2018-12-16T07:42:10.238Z,20.27
2018-12-16T07:44:36.632Z,22.95
2018-12-16T07:47:03.083Z,19.45
2018-12-16T07:49:29.405Z,19.40
2018-12-16T07:51:55.709Z,24.82
2018-12-16T07:54:22.032Z,21.20
2018-12-16T07:56:48.351Z,21.35
2018-12-16T07:59:14.675Z,20.75
2018-12-16T08:01:41.108Z,22.70
2018-12-16T08:04:07.534Z,30.80
2018-12-16T08:06:34.010Z,27.00
2018-12-16T08:09:00.481Z,21.00
2018-12-16T08:11:26.770Z,19.77
2018-12-16T08:13:53.127Z,19.92
2018-12-16T08:16:19.446Z,20.30
2018-12-16T08:18:45.795Z,30.60
2018-12-16T08:21:12.141Z,44.48
2018-12-16T08:23:38.549Z,23.38
2018-12-16T08:26:04.911Z,19.45
2018-12-16T08:28:31.206Z,22.07
2018-12-16T08:30:57.583Z,19.90
2018-12-16T08:33:23.840Z,20.62
2018-12-16T08:35:50.200Z,21.45
2018-12-16T08:38:16.540Z,19.52
2018-12-16T08:40:42.849Z,20.70
2018-12-16T08:43:09.181Z,21.65
2018-12-16T08:45:35.516Z,21.42
2018-12-16T08:48:01.939Z,21.12
2018-12-16T08:50:28.339Z,19.98
2018-12-16T08:52:54.632Z,22.35
2018-12-16T08:55:21.114Z,22.20
2018-12-16T08:57:47.414Z,21.05
2018-12-16T09:00:13.736Z,22.20
2018-12-16T09:02:40.119Z,20.80
2018-12-16T09:05:06.584Z,20.27
2018-12-16T09:07:37.280Z,22.40
2018-12-16T09:10:01.375Z,21.77
2018-12-16T09:12:27.723Z,22.02
2018-12-16T09:14:54.127Z,20.65
2018-12-16T09:17:20.667Z,19.62
2018-12-16T09:19:46.965Z,19.65
2018-12-16T09:22:13.263Z,19.70
2018-12-16T09:24:39.611Z,20.23
2018-12-16T09:27:05.957Z,32.98
2018-12-16T09:29:32.304Z,34.10
2018-12-16T09:31:58.635Z,26.25
2018-12-16T09:34:24.977Z,22.10
2018-12-16T09:36:51.363Z,26.33
2018-12-16T09:39:17.642Z,23.70
2018-12-16T09:41:44.028Z,23.20
2018-12-16T09:44:10.355Z,24.07
2018-12-16T09:46:36.689Z,26.33
2018-12-16T09:49:03.257Z,24.55
2018-12-16T09:51:29.530Z,28.20
2018-12-16T09:53:55.852Z,26.75
2018-12-16T09:56:22.284Z,21.90
2018-12-16T09:58:48.571Z,22.58
2018-12-16T10:01:14.859Z,20.15
2018-12-16T10:03:41.207Z,22.85
2018-12-16T10:06:07.521Z,21.70
2018-12-16T10:08:33.861Z,20.70
2018-12-16T10:11:00.219Z,20.68
2018-12-16T10:13:26.656Z,22.48
2018-12-16T10:15:53.012Z,21.25
2018-12-16T10:18:19.339Z,19.92
2018-12-16T10:20:45.619Z,22.93
2018-12-16T10:23:11.963Z,21.30
2018-12-16T10:25:38.236Z,23.25
2018-12-16T10:28:04.513Z,21.93
2018-12-16T10:30:30.896Z,21.33
2018-12-16T10:32:57.280Z,20.55
2018-12-16T10:35:23.928Z,23.25
2018-12-16T10:37:50.281Z,23.52
2018-12-16T10:40:16.620Z,20.85
2018-12-16T10:42:42.942Z,22.27
2018-12-16T10:45:09.452Z,23.20
2018-12-16T10:47:35.742Z,21.30
2018-12-16T10:50:04.150Z,19.73
2018-12-16T10:52:33.272Z,19.62
2018-12-16T10:54:59.696Z,21.85
2018-12-16T10:57:25.971Z,20.48
2018-12-16T10:59:52.274Z,19.23
2018-12-16T11:02:18.548Z,20.15
2018-12-16T11:04:44.823Z,20.92
2018-12-16T11:07:11.094Z,20.65
2018-12-16T11:09:37.352Z,21.77
2018-12-16T11:12:03.936Z,23.20
2018-12-16T11:14:30.219Z,22.37
2018-12-16T11:16:56.503Z,24.85
2018-12-16T11:19:22.793Z,34.98
2018-12-16T11:21:49.075Z,22.30
2018-12-16T11:24:15.460Z,23.30
2018-12-16T11:26:41.868Z,21.17
2018-12-16T11:29:08.187Z,20.12
2018-12-16T11:31:34.516Z,19.90
2018-12-16T11:34:01.684Z,19.95
2018-12-16T11:36:28.037Z,22.20
2018-12-16T11:38:54.359Z,21.25
2018-12-16T11:41:20.633Z,20.82
2018-12-16T11:43:46.942Z,23.05
2018-12-16T11:46:13.206Z,20.50
2018-12-16T11:48:39.476Z,22.07
2018-12-16T11:51:06.018Z,21.97
2018-12-16T11:53:32.395Z,22.62
2018-12-16T11:55:58.675Z,21.62
2018-12-16T11:58:24.988Z,21.55
2018-12-16T12:00:51.240Z,20.50
2018-12-16T12:03:17.619Z,20.77
2018-12-16T12:05:43.951Z,20.45
2018-12-16T12:08:10.263Z,21.20
2018-12-16T12:10:36.543Z,19.75
2018-12-16T12:13:02.991Z,19.73
2018-12-16T12:15:29.304Z,19.95
2018-12-16T12:17:55.576Z,22.00
2018-12-16T12:20:21.945Z,19.12
2018-12-16T12:22:48.383Z,21.23
2018-12-16T12:25:19.864Z,19.23
2018-12-16T12:27:42.988Z,19.37
2018-12-16T12:30:09.481Z,19.90
2018-12-16T12:32:35.856Z,20.17
2018-12-16T12:35:02.602Z,21.30
2018-12-16T12:37:28.926Z,20.20
2018-12-16T12:39:55.220Z,19.32
2018-12-16T12:42:21.472Z,19.15
2018-12-16T12:44:47.836Z,19.57
2018-12-16T12:47:14.149Z,19.60
2018-12-16T12:49:44.874Z,20.35
2018-12-16T12:52:08.925Z,19.23
2018-12-16T12:54:35.235Z,18.10
2018-12-16T12:57:01.592Z,20.35
2018-12-16T12:59:28.851Z,21.02
2018-12-16T13:01:55.199Z,18.45
2018-12-16T13:04:21.482Z,18.75
2018-12-16T13:06:47.783Z,19.48
2018-12-16T13:09:14.099Z,19.42
2018-12-16T13:11:40.503Z,21.05
2018-12-16T13:14:06.778Z,19.87
2018-12-16T13:16:33.042Z,19.95
2018-12-16T13:18:59.436Z,18.05
2018-12-16T13:21:25.688Z,20.70
2018-12-16T13:23:51.966Z,19.48
2018-12-16T13:26:18.251Z,19.73
2018-12-16T13:28:44.543Z,25.77
2018-12-16T13:31:10.823Z,21.40
2018-12-16T13:33:37.244Z,21.75
2018-12-16T13:36:03.651Z,19.90
2018-12-16T13:38:29.936Z,22.67
2018-12-16T13:40:56.182Z,22.00
2018-12-16T13:43:22.638Z,20.95
2018-12-16T13:45:48.930Z,23.32
2018-12-16T13:48:15.238Z,20.72
2018-12-16T13:50:41.517Z,19.10
2018-12-16T13:53:07.832Z,19.07
2018-12-16T13:55:40.744Z,20.37
2018-12-16T13:58:05.498Z,19.25
2018-12-16T14:00:31.912Z,18.92
2018-12-16T14:02:58.271Z,18.85
2018-12-16T14:05:24.560Z,19.62
2018-12-16T14:07:50.867Z,20.30
2018-12-16T14:10:17.164Z,19.62
2018-12-16T14:12:43.407Z,21.48
2018-12-16T14:15:09.718Z,18.52
2018-12-16T14:17:35.972Z,21.68
2018-12-16T14:20:04.064Z,20.52
2018-12-16T14:22:30.359Z,20.25
2018-12-16T14:24:56.750Z,34.40
2018-12-16T14:27:23.054Z,48.17
2018-12-16T14:29:49.304Z,32.30
2018-12-16T14:32:15.615Z,22.15
2018-12-16T14:34:41.911Z,23.83
2018-12-16T14:37:08.185Z,21.48
2018-12-16T14:39:34.579Z,21.55
2018-12-16T14:42:00.847Z,20.82
2018-12-16T14:44:27.210Z,20.27
2018-12-16T14:46:53.532Z,20.23
2018-12-16T14:49:19.843Z,20.72
2018-12-16T14:51:46.171Z,20.20
2018-12-16T14:54:12.476Z,19.62
2018-12-16T14:56:38.760Z,19.30
2018-12-16T14:59:05.099Z,21.15
2018-12-16T15:01:31.410Z,19.32
2018-12-16T15:03:57.674Z,20.32
2018-12-16T15:06:23.923Z,19.07
2018-12-16T15:08:50.219Z,19.73
2018-12-16T15:11:16.477Z,21.10
2018-12-16T15:13:42.831Z,19.80
2018-12-16T15:16:10.222Z,20.27
2018-12-16T15:18:36.924Z,21.85
2018-12-16T15:21:03.231Z,19.35
2018-12-16T15:23:29.523Z,21.48
2018-12-16T15:26:01.889Z,20.02
2018-12-16T15:28:24.157Z,19.70
2018-12-16T15:30:50.435Z,23.55
2018-12-16T15:33:16.807Z,21.42
2018-12-16T15:35:43.098Z,19.25
2018-12-16T15:38:09.351Z,20.90
2018-12-16T15:40:35.633Z,20.10
2018-12-16T15:43:01.981Z,22.27
2018-12-16T15:45:28.283Z,18.98
2018-12-16T15:47:54.631Z,22.02
2018-12-16T15:50:20.928Z,20.00
2018-12-16T15:52:47.328Z,19.80
2018-12-16T15:55:13.728Z,20.88
2018-12-16T15:57:40.095Z,23.22
2018-12-16T16:00:07.164Z,22.52
2018-12-16T16:02:33.488Z,20.92
2018-12-16T16:04:59.766Z,19.23
2018-12-16T16:07:26.071Z,21.35
2018-12-16T16:09:52.477Z,22.15
2018-12-16T16:12:18.762Z,22.35
2018-12-16T16:14:45.060Z,20.62
2018-12-16T16:17:11.391Z,21.45
2018-12-16T16:19:37.770Z,22.32
2018-12-16T16:22:04.061Z,22.45
2018-12-16T16:24:30.345Z,22.37
2018-12-16T16:26:56.599Z,22.32
2018-12-16T16:29:22.895Z,21.33
2018-12-16T16:31:49.193Z,20.25
2018-12-16T16:34:15.492Z,21.10
2018-12-16T16:36:41.773Z,20.55
2018-12-16T16:39:08.079Z,20.35
2018-12-16T16:41:34.402Z,20.50
2018-12-16T16:44:00.675Z,20.12
2018-12-16T16:46:26.966Z,20.90
2018-12-16T16:48:53.245Z,21.15
2018-12-16T16:51:19.555Z,19.55
2018-12-16T16:53:45.817Z,20.48
2018-12-16T16:56:12.223Z,20.62
2018-12-16T16:58:38.562Z,20.75
2018-12-16T17:01:04.988Z,20.20
2018-12-16T17:03:31.309Z,20.30
2018-12-16T17:05:57.680Z,19.82
2018-12-16T17:08:23.967Z,20.68
2018-12-16T17:10:50.335Z,19.52
2018-12-16T17:13:16.676Z,19.50
2018-12-16T17:15:43.251Z,18.75
2018-12-16T17:18:10.447Z,20.68
2018-12-16T17:20:36.751Z,20.77
2018-12-16T17:23:03.701Z,21.85
2018-12-16T17:25:30.221Z,20.12
2018-12-16T17:27:56.795Z,21.37
2018-12-16T17:30:23.186Z,20.62
2018-12-16T17:32:50.165Z,21.82
2018-12-16T17:35:16.871Z,19.85
2018-12-16T17:37:43.176Z,19.00
2018-12-16T17:40:09.923Z,20.00
2018-12-16T17:42:36.240Z,18.80
2018-12-16T17:45:02.835Z,19.27
2018-12-16T17:47:29.339Z,20.62
2018-12-16T17:49:56.019Z,21.33
2018-12-16T17:52:22.558Z,20.97
2018-12-16T17:54:48.876Z,19.87
2018-12-16T17:57:15.148Z,20.02
2018-12-16T17:59:41.941Z,21.82
2018-12-16T18:02:08.237Z,20.80
2018-12-16T18:04:34.499Z,22.00
2018-12-16T18:07:00.817Z,19.35
2018-12-16T18:09:27.086Z,20.20
2018-12-16T18:11:53.815Z,20.25
2018-12-16T18:14:20.447Z,20.62
2018-12-16T18:16:46.762Z,20.92
2018-12-16T18:19:13.476Z,19.87
2018-12-16T18:21:40.349Z,22.20
2018-12-16T18:24:06.945Z,19.55
2018-12-16T18:26:33.216Z,20.30
2018-12-16T18:29:00.267Z,21.00
2018-12-16T18:31:27.391Z,20.12
2018-12-16T18:33:53.688Z,22.50
2018-12-16T18:36:21.036Z,21.75
2018-12-16T18:38:48.048Z,21.27
2018-12-16T18:41:15.043Z,21.12
2018-12-16T18:43:41.771Z,20.85
2018-12-16T18:46:08.461Z,20.70
2018-12-16T18:48:34.856Z,22.25
2018-12-16T18:51:01.515Z,21.30
2018-12-16T18:53:28.758Z,19.70
2018-12-16T18:55:55.401Z,20.27
2018-12-16T18:58:22.437Z,20.45
2018-12-16T19:00:48.815Z,21.52
2018-12-16T19:03:15.097Z,19.60
2018-12-16T19:05:41.499Z,20.43
2018-12-16T19:08:07.914Z,18.40
2018-12-16T19:10:34.249Z,20.50
2018-12-16T19:13:00.573Z,22.50
2018-12-16T19:15:27.219Z,19.90
2018-12-16T19:17:53.547Z,21.40
2018-12-16T19:20:20.067Z,20.80
2018-12-16T19:22:46.407Z,21.02
2018-12-16T19:25:13.072Z,19.23
2018-12-16T19:27:39.424Z,21.42
2018-12-16T19:30:07.414Z,20.85
2018-12-16T19:32:34.752Z,18.87
2018-12-16T19:35:03.066Z,20.68
2018-12-16T19:37:29.350Z,20.32
2018-12-16T19:39:55.643Z,19.80
2018-12-16T19:42:22.076Z,22.40
2018-12-16T19:44:49.498Z,20.35
2018-12-16T19:47:15.765Z,17.77
2018-12-16T19:49:43.596Z,20.17
2018-12-16T19:52:10.630Z,21.65
2018-12-16T19:54:37.407Z,20.27
2018-12-16T19:57:05.280Z,20.65
2018-12-16T19:59:32.187Z,22.62
2018-12-16T20:01:58.819Z,19.85
2018-12-16T20:04:27.935Z,21.95
2018-12-16T20:06:55.357Z,21.73
2018-12-16T20:09:21.651Z,22.55
2018-12-16T20:11:47.952Z,21.95
2018-12-16T20:14:15.492Z,20.48
2018-12-16T20:16:41.821Z,20.32
2018-12-16T20:19:08.118Z,22.07
2018-12-16T20:21:34.450Z,20.45
2018-12-16T20:24:00.779Z,22.65
2018-12-16T20:26:27.080Z,22.80
2018-12-16T20:28:53.354Z,22.80
2018-12-16T20:31:19.646Z,21.02
2018-12-16T20:33:45.956Z,19.32
2018-12-16T20:36:17.582Z,21.50
2018-12-16T20:38:44.347Z,20.97
2018-12-16T20:41:10.661Z,21.35
2018-12-16T20:43:36.940Z,21.05
2018-12-16T20:46:06.925Z,21.75
2018-12-16T20:48:33.665Z,20.77
2018-12-16T20:51:00.059Z,21.95
2018-12-16T20:53:26.328Z,22.15
2018-12-16T20:55:52.635Z,22.65
2018-12-16T20:58:18.945Z,20.95
2018-12-16T21:00:45.218Z,24.02
2018-12-16T21:03:11.504Z,21.93
2018-12-16T21:05:37.756Z,22.65
2018-12-16T21:08:04.035Z,21.73
2018-12-16T21:10:30.329Z,24.43
2018-12-16T21:13:02.756Z,22.82
2018-12-16T21:15:35.220Z,22.25
2018-12-16T21:18:07.619Z,22.60
2018-12-16T21:20:33.882Z,22.17
2018-12-16T21:23:00.199Z,22.67
2018-12-16T21:25:26.546Z,22.48
2018-12-16T21:27:52.880Z,22.25
2018-12-16T21:30:19.176Z,22.60
2018-12-16T21:32:45.472Z,21.15
2018-12-16T21:35:11.846Z,22.65
2018-12-16T21:37:38.134Z,19.40
2018-12-16T21:40:04.647Z,22.17
2018-12-16T21:42:30.928Z,21.35
2018-12-16T21:44:57.234Z,22.32
2018-12-16T21:47:23.504Z,23.12
2018-12-16T21:49:49.791Z,20.15
2018-12-16T21:52:16.091Z,20.90
2018-12-16T21:54:42.341Z,22.62
2018-12-16T21:57:08.614Z,21.45
2018-12-16T21:59:35.087Z,20.97
2018-12-16T22:02:01.364Z,20.27
2018-12-16T22:04:27.657Z,21.27
2018-12-16T22:06:53.961Z,20.90
2018-12-16T22:09:20.284Z,20.50
2018-12-16T22:11:46.563Z,23.15
2018-12-16T22:14:12.837Z,21.37
2018-12-16T22:16:39.147Z,22.27
2018-12-16T22:19:05.415Z,22.73
2018-12-16T22:21:31.746Z,20.08
2018-12-16T22:23:58.039Z,22.25
2018-12-16T22:26:24.331Z,21.70
2018-12-16T22:28:50.664Z,21.75
2018-12-16T22:31:16.948Z,22.58
2018-12-16T22:33:43.291Z,21.55
2018-12-16T22:36:09.599Z,21.75
2018-12-16T22:38:35.871Z,21.95
2018-12-16T22:41:02.187Z,20.85
2018-12-16T22:43:28.479Z,21.17
2018-12-16T22:45:54.779Z,22.62
2018-12-16T22:48:21.056Z,21.82
2018-12-16T22:50:47.351Z,21.93
2018-12-16T22:53:13.679Z,21.75
2018-12-16T22:55:40.005Z,23.70
2018-12-16T22:58:06.343Z,22.00
2018-12-16T23:00:34.703Z,21.42
2018-12-16T23:03:01.054Z,23.30
2018-12-16T23:05:27.394Z,23.67
2018-12-16T23:07:53.683Z,21.30
2018-12-16T23:10:20.039Z,22.13
2018-12-16T23:12:46.337Z,22.07
2018-12-16T23:15:12.670Z,23.57
2018-12-16T23:17:38.974Z,22.77
2018-12-16T23:20:11.545Z,21.15
2018-12-16T23:22:37.838Z,22.77
2018-12-16T23:25:04.527Z,20.48
2018-12-16T23:27:30.809Z,22.27
2018-12-16T23:29:57.111Z,21.87
2018-12-16T23:32:23.406Z,23.52
2018-12-16T23:34:49.666Z,22.65
2018-12-16T23:37:16.000Z,21.23
2018-12-16T23:39:42.307Z,21.00
2018-12-16T23:42:08.608Z,20.35
2018-12-16T23:44:34.928Z,21.75
2018-12-16T23:47:01.252Z,21.57
2018-12-16T23:49:27.555Z,23.57
2018-12-16T23:51:53.843Z,20.70
2018-12-16T23:54:20.172Z,22.70
2018-12-16T23:56:46.520Z,23.60
2018-12-16T23:59:12.786Z,21.37
